createdAt,value
2022-10-02T00:00:00.505Z,11.70
2022-10-02T00:02:32.794Z,11.60
2022-10-02T00:05:23.913Z,11.70
2022-10-02T00:08:00.818Z,11.60
2022-10-02T00:10:45.627Z,11.70
2022-10-02T00:13:19.539Z,11.60
2022-10-02T00:15:47.894Z,11.70
2022-10-02T00:18:20.456Z,11.70
2022-10-02T00:21:09.803Z,11.70
2022-10-02T00:23:41.504Z,11.70
2022-10-02T00:26:22.406Z,11.70
2022-10-02T00:29:24.279Z,11.70
2022-10-02T00:31:56.663Z,11.70
2022-10-02T00:34:31.906Z,11.70
2022-10-02T00:37:32.382Z,11.70
2022-10-02T00:40:25.630Z,11.80
2022-10-02T00:43:11.213Z,11.70
2022-10-02T00:46:04.684Z,11.70
2022-10-02T00:49:01.160Z,11.70
2022-10-02T00:51:27.688Z,11.70
2022-10-02T00:54:30.145Z,11.60
2022-10-02T00:57:13.543Z,11.60
2022-10-02T01:00:12.854Z,11.60
2022-10-02T01:03:10.299Z,11.60
2022-10-02T01:05:38.013Z,11.60
2022-10-02T01:08:04.935Z,11.60
2022-10-02T01:10:32.105Z,11.60
2022-10-02T01:12:59.155Z,11.60
2022-10-02T01:15:44.221Z,11.60
2022-10-02T01:18:13.995Z,11.60
2022-10-02T01:20:45.408Z,11.50
2022-10-02T01:23:30.088Z,11.60
2022-10-02T01:25:57.981Z,11.60
2022-10-02T01:28:24.949Z,11.60
2022-10-02T01:30:55.866Z,11.50
2022-10-02T01:33:23.047Z,11.60
2022-10-02T01:35:50.090Z,11.60
2022-10-02T01:38:20.329Z,11.60
2022-10-02T01:40:46.998Z,11.60
2022-10-02T01:43:35.722Z,11.60
2022-10-02T01:46:17.342Z,11.70
2022-10-02T01:49:00.306Z,11.70
2022-10-02T01:51:29.704Z,11.70
2022-10-02T01:54:27.178Z,11.70
2022-10-02T01:57:02.811Z,11.70
2022-10-02T01:59:32.421Z,11.70
2022-10-02T02:02:13.107Z,11.70
2022-10-02T02:04:54.667Z,11.70
2022-10-02T02:07:48.541Z,11.70
2022-10-02T02:10:42.825Z,11.70
2022-10-02T02:13:40.251Z,11.70
2022-10-02T02:16:32.028Z,11.70
2022-10-02T02:19:19.855Z,11.80
2022-10-02T02:21:52.967Z,11.70
2022-10-02T02:24:35.797Z,11.70
2022-10-02T02:27:04.082Z,11.70
2022-10-02T02:29:34.398Z,11.70
2022-10-02T02:32:05.721Z,11.70
2022-10-02T02:34:54.654Z,11.60
2022-10-02T02:37:24.493Z,11.70
2022-10-02T02:40:25.677Z,11.70
2022-10-02T02:43:01.822Z,11.70
2022-10-02T02:45:34.666Z,11.70
2022-10-02T02:48:16.604Z,11.60
2022-10-02T02:50:52.528Z,11.60
2022-10-02T02:53:35.238Z,11.70
2022-10-02T02:56:05.595Z,11.60
2022-10-02T02:58:45.051Z,11.60
2022-10-02T03:01:11.738Z,11.60
2022-10-02T03:03:38.408Z,11.60
2022-10-02T03:06:18.348Z,11.60
2022-10-02T03:08:46.729Z,11.60
2022-10-02T03:11:41.597Z,11.60
2022-10-02T03:14:15.342Z,11.60
2022-10-02T03:17:13.882Z,11.60
2022-10-02T03:19:49.978Z,11.60
2022-10-02T03:22:49.969Z,11.50
2022-10-02T03:25:31.925Z,11.50
2022-10-02T03:28:50.569Z,11.60
2022-10-02T03:31:15.704Z,11.60
2022-10-02T03:33:43.616Z,11.60
2022-10-02T03:36:12.551Z,11.50
2022-10-02T03:38:40.545Z,11.50
2022-10-02T03:41:07.119Z,11.50
2022-10-02T03:43:33.761Z,11.50
2022-10-02T03:46:00.392Z,11.50
2022-10-02T03:48:27.083Z,11.50
2022-10-02T03:50:53.924Z,11.50
2022-10-02T03:53:23.936Z,11.40
2022-10-02T03:56:13.520Z,11.40
2022-10-02T03:58:45.168Z,11.40
2022-10-02T04:01:17.501Z,11.40
2022-10-02T04:03:50.128Z,11.30
2022-10-02T04:06:28.106Z,11.40
2022-10-02T04:09:02.268Z,11.30
2022-10-02T04:11:57.461Z,11.30
2022-10-02T04:14:29.910Z,11.30
2022-10-02T04:17:20.564Z,11.30
2022-10-02T04:19:57.527Z,11.30
2022-10-02T04:22:38.998Z,11.30
2022-10-02T04:25:05.669Z,11.20
2022-10-02T04:27:51.114Z,11.20
2022-10-02T04:30:20.370Z,11.20
2022-10-02T04:32:47.625Z,11.10
2022-10-02T04:35:37.670Z,11.10
2022-10-02T04:38:39.674Z,11.10
2022-10-02T04:41:09.763Z,11.10
2022-10-02T04:44:06.321Z,11.10
2022-10-02T04:46:53.948Z,11.10
2022-10-02T04:49:54.175Z,11.10
2022-10-02T04:52:52.718Z,11.10
2022-10-02T04:55:27.941Z,11.10
2022-10-02T04:58:24.567Z,11.10
2022-10-02T05:01:28.032Z,11.10
2022-10-02T05:04:20.409Z,11.10
2022-10-02T05:07:01.915Z,11.10
2022-10-02T05:09:37.405Z,11.10
2022-10-02T05:12:31.322Z,11.10
2022-10-02T05:15:41.501Z,11.10
2022-10-02T05:18:45.347Z,11.10
2022-10-02T05:21:23.854Z,11.10
2022-10-02T05:23:58.860Z,11.10
2022-10-02T05:26:28.399Z,11.10
2022-10-02T05:29:12.652Z,11.10
2022-10-02T05:32:00.787Z,11.10
2022-10-02T05:34:41.409Z,11.10
2022-10-02T05:37:24.012Z,11.10
2022-10-02T05:40:10.909Z,11.10
2022-10-02T05:42:45.045Z,11.10
2022-10-02T05:45:39.137Z,11.10
2022-10-02T05:48:41.009Z,11.10
2022-10-02T05:51:20.825Z,11.10
2022-10-02T05:53:57.398Z,11.10
2022-10-02T05:56:40.813Z,11.20
2022-10-02T05:59:09.514Z,11.20
2022-10-02T06:01:46.691Z,11.20
2022-10-02T06:04:32.066Z,11.20
2022-10-02T06:07:07.050Z,11.20
2022-10-02T06:09:49.738Z,11.20
2022-10-02T06:12:26.761Z,11.20
2022-10-02T06:15:28.623Z,11.20
2022-10-02T06:18:07.061Z,11.20
2022-10-02T06:20:41.774Z,11.30
2022-10-02T06:23:19.951Z,11.30
2022-10-02T06:25:57.315Z,11.30
2022-10-02T06:28:51.899Z,11.30
2022-10-02T06:31:24.815Z,11.40
2022-10-02T06:33:53.118Z,11.40
2022-10-02T06:36:39.178Z,11.40
2022-10-02T06:39:37.143Z,11.50
2022-10-02T06:42:09.889Z,11.50
2022-10-02T06:44:47.830Z,11.60
2022-10-02T06:47:34.234Z,11.60
2022-10-02T06:50:40.038Z,11.70
2022-10-02T06:53:22.850Z,11.70
2022-10-02T06:56:01.091Z,11.80
2022-10-02T06:58:37.626Z,11.90
2022-10-02T07:01:29.888Z,11.80
2022-10-02T07:04:12.478Z,11.90
2022-10-02T07:06:57.475Z,12.00
2022-10-02T07:09:48.658Z,12.00
2022-10-02T07:12:29.137Z,12.10
2022-10-02T07:15:31.927Z,12.20
2022-10-02T07:18:19.588Z,12.30
2022-10-02T07:21:15.998Z,12.40
2022-10-02T07:23:51.877Z,13.10
2022-10-02T07:26:31.614Z,14.20
2022-10-02T07:29:23.956Z,15.20
2022-10-02T07:32:05.508Z,16.00
2022-10-02T07:34:48.699Z,16.90
2022-10-02T07:37:31.167Z,17.90
2022-10-02T07:40:20.667Z,18.30
2022-10-02T07:43:08.105Z,18.90
2022-10-02T07:45:39.159Z,19.10
2022-10-02T07:48:05.774Z,19.90
2022-10-02T07:51:02.749Z,20.30
2022-10-02T07:53:39.016Z,20.80
2022-10-02T07:56:19.757Z,21.10
2022-10-02T07:58:54.766Z,21.60
2022-10-02T08:01:25.918Z,21.70
2022-10-02T08:04:00.358Z,21.10
2022-10-02T08:06:27.116Z,21.00
2022-10-02T08:09:22.711Z,21.50
2022-10-02T08:11:58.829Z,21.20
2022-10-02T08:14:42.791Z,20.00
2022-10-02T08:17:38.305Z,18.90
2022-10-02T08:20:29.473Z,18.60
2022-10-02T08:23:21.019Z,19.20
2022-10-02T08:26:07.051Z,19.70
2022-10-02T08:28:57.700Z,20.80
2022-10-02T08:31:25.470Z,21.60
2022-10-02T08:33:52.080Z,22.20
2022-10-02T08:36:40.653Z,22.70
2022-10-02T08:39:24.581Z,23.20
2022-10-02T08:42:16.494Z,23.50
2022-10-02T08:45:20.750Z,23.50
2022-10-02T08:48:24.683Z,23.70
2022-10-02T08:51:09.386Z,22.60
2022-10-02T08:53:52.431Z,22.20
2022-10-02T08:56:52.960Z,22.40
2022-10-02T08:59:31.227Z,22.10
2022-10-02T09:02:17.012Z,21.20
2022-10-02T09:05:11.361Z,20.80
2022-10-02T09:07:57.752Z,21.00
2022-10-02T09:10:27.042Z,20.80
2022-10-02T09:13:09.906Z,20.40
2022-10-02T09:16:10.126Z,20.30
2022-10-02T09:18:39.613Z,21.20
2022-10-02T09:21:16.779Z,21.60
2022-10-02T09:24:02.327Z,21.60
2022-10-02T09:27:00.348Z,22.00
2022-10-02T09:29:42.171Z,21.70
2022-10-02T09:32:21.718Z,21.30
2022-10-02T09:34:48.536Z,21.30
2022-10-02T09:37:28.199Z,20.90
2022-10-02T09:40:29.407Z,20.40
2022-10-02T09:43:17.448Z,20.00
2022-10-02T09:45:53.000Z,19.90
2022-10-02T09:49:03.714Z,19.80
2022-10-02T09:51:33.217Z,19.80
2022-10-02T09:54:12.777Z,20.20
2022-10-02T09:57:11.552Z,20.80
2022-10-02T10:00:14.692Z,20.90
2022-10-02T10:03:15.135Z,20.80
2022-10-02T10:06:18.243Z,21.30
2022-10-02T10:09:18.309Z,20.90
2022-10-02T10:12:03.568Z,21.00
2022-10-02T10:14:48.203Z,20.50
2022-10-02T10:17:33.262Z,20.30
2022-10-02T10:20:34.294Z,20.50
2022-10-02T10:23:20.461Z,20.90
2022-10-02T10:25:59.087Z,20.60
2022-10-02T10:29:11.155Z,20.70
2022-10-02T10:31:55.893Z,20.40
2022-10-02T10:34:50.827Z,20.10
2022-10-02T10:37:54.454Z,19.30
2022-10-02T10:40:56.119Z,18.80
2022-10-02T10:43:43.573Z,19.00
2022-10-02T10:46:29.102Z,19.60
2022-10-02T10:49:02.747Z,20.30
2022-10-02T10:51:51.230Z,20.30
2022-10-02T10:54:40.425Z,19.80
2022-10-02T10:57:45.428Z,19.10
2022-10-02T11:00:17.754Z,18.70
2022-10-02T11:02:58.731Z,18.30
2022-10-02T11:05:33.854Z,18.20
2022-10-02T11:08:43.235Z,18.40
2022-10-02T11:11:12.721Z,18.60
2022-10-02T11:13:51.830Z,19.00
2022-10-02T11:17:03.527Z,19.20
2022-10-02T11:19:52.903Z,19.00
2022-10-02T11:22:37.716Z,18.90
2022-10-02T11:25:42.371Z,19.10
2022-10-02T11:28:30.156Z,19.30
2022-10-02T11:31:08.822Z,19.50
2022-10-02T11:34:12.441Z,19.70
2022-10-02T11:37:01.045Z,19.80
2022-10-02T11:39:30.685Z,20.00
2022-10-02T11:42:21.679Z,20.00
2022-10-02T11:45:18.319Z,20.10
2022-10-02T11:47:46.790Z,19.80
2022-10-02T11:50:45.226Z,19.60
2022-10-02T11:53:32.006Z,19.50
2022-10-02T11:56:11.650Z,19.30
2022-10-02T11:58:45.397Z,19.10
2022-10-02T12:01:49.971Z,18.90
2022-10-02T12:04:52.530Z,18.70
2022-10-02T12:07:24.408Z,18.60
2022-10-02T12:09:54.602Z,18.30
2022-10-02T12:12:42.779Z,18.20
2022-10-02T12:15:30.087Z,18.10
2022-10-02T12:17:59.662Z,17.90
2022-10-02T12:21:17.210Z,17.80
2022-10-02T12:24:13.242Z,17.80
2022-10-02T12:27:09.816Z,17.90
2022-10-02T12:29:55.114Z,18.10
2022-10-02T12:32:43.365Z,18.40
2022-10-02T12:35:22.621Z,18.70
2022-10-02T12:38:24.194Z,18.80
2022-10-02T12:41:21.566Z,18.90
2022-10-02T12:44:05.600Z,19.10
2022-10-02T12:46:45.950Z,19.20
2022-10-02T12:49:25.223Z,19.40
2022-10-02T12:52:21.164Z,19.60
2022-10-02T12:55:12.509Z,19.80
2022-10-02T12:57:57.190Z,20.00
2022-10-02T13:01:01.004Z,20.00
2022-10-02T13:03:59.848Z,19.90
2022-10-02T13:06:42.411Z,19.80
2022-10-02T13:09:20.276Z,19.50
2022-10-02T13:11:47.207Z,19.10
2022-10-02T13:14:53.052Z,18.70
2022-10-02T13:17:49.448Z,18.50
2022-10-02T13:20:26.744Z,18.70
2022-10-02T13:23:34.164Z,18.80
2022-10-02T13:26:00.866Z,18.90
2022-10-02T13:28:50.007Z,19.00
2022-10-02T13:31:43.076Z,19.10
2022-10-02T13:34:20.982Z,19.20
2022-10-02T13:37:24.114Z,19.30
2022-10-02T13:40:18.069Z,19.40
2022-10-02T13:43:17.563Z,19.40
2022-10-02T13:46:08.283Z,19.20
2022-10-02T13:49:10.595Z,19.00
2022-10-02T13:51:44.514Z,18.90
2022-10-02T13:54:39.341Z,18.60
2022-10-02T13:57:21.414Z,18.50
2022-10-02T13:59:53.739Z,18.30
2022-10-02T14:02:26.651Z,18.10
2022-10-02T14:04:55.189Z,18.00
2022-10-02T14:07:41.445Z,18.00
2022-10-02T14:10:41.703Z,18.20
2022-10-02T14:13:29.305Z,18.20
2022-10-02T14:15:58.725Z,18.20
2022-10-02T14:18:28.118Z,18.30
2022-10-02T14:21:15.841Z,18.40
2022-10-02T14:23:56.385Z,18.40
2022-10-02T14:27:05.753Z,18.40
2022-10-02T14:29:40.086Z,18.50
2022-10-02T14:32:30.963Z,18.50
2022-10-02T14:35:25.187Z,18.40
2022-10-02T14:38:28.432Z,18.50
2022-10-02T14:40:57.474Z,18.60
2022-10-02T14:43:51.706Z,18.50
2022-10-02T14:46:24.924Z,18.40
2022-10-02T14:49:07.028Z,18.30
2022-10-02T14:51:47.581Z,18.10
2022-10-02T14:54:33.163Z,17.90
2022-10-02T14:57:25.891Z,17.90
2022-10-02T15:00:18.110Z,17.80
2022-10-02T15:03:16.702Z,17.60
2022-10-02T15:06:17.398Z,17.50
2022-10-02T15:08:52.472Z,17.50
2022-10-02T15:11:31.406Z,17.50
2022-10-02T15:14:07.078Z,17.40
2022-10-02T15:17:04.905Z,17.50
2022-10-02T15:19:47.722Z,17.50
2022-10-02T15:22:29.924Z,17.40
2022-10-02T15:25:17.949Z,17.40
2022-10-02T15:28:35.246Z,17.40
2022-10-02T15:31:19.121Z,17.30
2022-10-02T15:34:00.995Z,17.10
2022-10-02T15:36:43.793Z,17.00
2022-10-02T15:39:34.531Z,17.00
2022-10-02T15:42:06.709Z,16.90
2022-10-02T15:44:58.117Z,16.80
2022-10-02T15:47:44.930Z,16.80
2022-10-02T15:50:35.945Z,16.80
2022-10-02T15:53:33.495Z,16.80
2022-10-02T15:56:38.789Z,16.80
2022-10-02T15:59:08.735Z,16.70
2022-10-02T16:02:09.098Z,16.70
2022-10-02T16:04:54.953Z,16.60
2022-10-02T16:07:36.770Z,16.60
2022-10-02T16:10:27.151Z,16.50
2022-10-02T16:13:22.826Z,16.40
2022-10-02T16:15:55.917Z,16.40
2022-10-02T16:18:48.294Z,16.40
2022-10-02T16:21:54.048Z,16.40
2022-10-02T16:24:35.454Z,16.30
2022-10-02T16:27:20.224Z,16.30
2022-10-02T16:30:03.015Z,16.20
2022-10-02T16:32:52.966Z,16.10
2022-10-02T16:35:51.413Z,16.10
2022-10-02T17:00:02.481Z,15.60
2022-10-02T17:02:43.412Z,15.50
2022-10-02T17:05:25.239Z,15.50
2022-10-02T17:07:59.774Z,15.40
2022-10-02T17:10:29.390Z,15.40
2022-10-02T17:13:06.394Z,15.30
2022-10-02T17:15:51.363Z,15.30
2022-10-02T17:18:59.363Z,15.20
2022-10-02T17:21:46.317Z,15.20
2022-10-02T17:24:40.652Z,15.10
2022-10-02T17:27:17.524Z,15.20
2022-10-02T17:29:52.869Z,15.10
2022-10-02T17:32:48.189Z,15.20
2022-10-02T17:35:26.333Z,15.10
2022-10-02T17:38:13.209Z,15.20
2022-10-02T17:41:09.329Z,15.10
2022-10-02T17:43:56.198Z,15.10
2022-10-02T17:46:46.666Z,15.10
2022-10-02T17:49:22.284Z,15.10
2022-10-02T17:52:27.030Z,15.10
2022-10-02T17:55:37.956Z,15.10
2022-10-02T17:58:13.257Z,15.00
2022-10-02T18:00:50.634Z,14.90
2022-10-02T18:03:30.929Z,14.80
2022-10-02T18:06:17.414Z,14.70
2022-10-02T18:08:57.610Z,14.70
2022-10-02T18:12:01.040Z,14.70
2022-10-02T18:14:52.706Z,14.70
2022-10-02T18:17:31.387Z,14.70
2022-10-02T18:20:29.814Z,14.60
2022-10-02T18:23:15.393Z,14.50
2022-10-02T18:25:49.019Z,14.50
2022-10-02T18:28:50.758Z,14.40
2022-10-02T18:31:17.356Z,14.40
2022-10-02T18:34:20.828Z,14.50
2022-10-02T18:37:09.584Z,14.20
2022-10-02T18:39:57.889Z,14.20
2022-10-02T18:43:07.890Z,14.10
2022-10-02T18:45:54.519Z,14.10
2022-10-02T18:48:42.344Z,14.00
2022-10-02T18:51:08.872Z,14.00
2022-10-02T18:53:53.710Z,13.90
2022-10-02T18:56:46.454Z,13.90
2022-10-02T18:59:38.972Z,13.80
2022-10-02T19:02:35.607Z,13.70
2022-10-02T19:05:22.971Z,13.70
2022-10-02T19:07:50.213Z,13.70
2022-10-02T19:10:26.166Z,13.70
2022-10-02T19:13:23.632Z,13.60
2022-10-02T19:15:53.280Z,13.60
2022-10-02T19:18:25.376Z,13.50
2022-10-02T19:21:00.775Z,13.50
2022-10-02T19:23:39.332Z,13.50
2022-10-02T19:26:23.421Z,13.50
2022-10-02T19:29:03.239Z,13.40
2022-10-02T19:31:35.534Z,13.40
2022-10-02T19:34:10.755Z,13.30
2022-10-02T19:36:42.605Z,13.30
2022-10-02T19:39:22.127Z,13.30
2022-10-02T19:41:52.456Z,13.20
2022-10-02T19:44:46.886Z,13.10
2022-10-02T19:47:21.144Z,13.20
2022-10-02T19:49:49.090Z,13.10
2022-10-02T19:52:53.742Z,13.10
2022-10-02T19:55:23.958Z,13.10
2022-10-02T19:57:54.064Z,13.00
2022-10-02T20:00:20.920Z,13.00
2022-10-02T20:02:51.652Z,12.90
2022-10-02T20:05:24.127Z,12.90
2022-10-02T20:07:56.038Z,12.80
2022-10-02T20:10:32.397Z,12.80
2022-10-02T20:13:02.095Z,12.80
2022-10-02T20:15:54.715Z,12.80
2022-10-02T20:18:23.233Z,12.80
2022-10-02T20:20:55.842Z,12.70
2022-10-02T20:23:27.986Z,12.70
2022-10-02T20:25:58.457Z,12.70
2022-10-02T20:28:43.931Z,12.60
2022-10-02T20:31:22.875Z,12.60
2022-10-02T20:33:59.150Z,12.60
2022-10-02T20:36:37.922Z,12.50
2022-10-02T20:39:11.197Z,12.60
2022-10-02T20:41:45.227Z,12.60
2022-10-02T20:44:12.710Z,12.40
2022-10-02T20:47:21.442Z,12.40
2022-10-02T20:50:18.252Z,12.40
2022-10-02T20:53:29.378Z,12.40
2022-10-02T20:56:33.668Z,12.40
2022-10-02T20:59:16.987Z,12.40
2022-10-02T21:02:09.203Z,12.30
2022-10-02T21:05:11.025Z,12.30
2022-10-02T21:07:48.093Z,12.30
2022-10-02T21:10:50.102Z,12.20
2022-10-02T21:13:25.514Z,12.20
2022-10-02T21:16:17.331Z,12.20
2022-10-02T21:18:47.846Z,12.20
2022-10-02T21:21:20.868Z,12.10
2022-10-02T21:24:15.004Z,12.00
2022-10-02T21:27:13.937Z,12.10
2022-10-02T21:30:01.887Z,12.00
2022-10-02T21:33:09.901Z,12.10
2022-10-02T21:35:57.238Z,12.00
2022-10-02T21:38:27.989Z,12.10
2022-10-02T21:41:28.476Z,12.00
2022-10-02T21:44:43.200Z,12.10
2022-10-02T21:48:04.429Z,12.00
2022-10-02T21:50:48.033Z,12.00
2022-10-02T21:53:33.443Z,12.00
2022-10-02T21:56:20.806Z,11.90
2022-10-02T21:58:50.290Z,11.90
2022-10-02T22:01:46.485Z,12.00
2022-10-02T22:04:40.417Z,12.00
2022-10-02T22:07:15.894Z,12.00
2022-10-02T22:10:05.437Z,11.90
2022-10-02T22:12:40.949Z,11.90
2022-10-02T22:15:07.513Z,11.90
2022-10-02T22:17:48.457Z,11.80
2022-10-02T22:20:32.457Z,11.80
2022-10-02T22:23:18.010Z,11.80
2022-10-02T22:26:14.386Z,11.80
2022-10-02T22:28:45.362Z,11.80
2022-10-02T22:31:32.266Z,11.70
2022-10-02T22:34:14.025Z,11.70
2022-10-02T22:36:43.722Z,11.70
2022-10-02T22:39:59.273Z,11.70
2022-10-02T22:42:37.623Z,11.70
2022-10-02T22:45:33.126Z,11.70
2022-10-02T22:48:10.338Z,11.70
2022-10-02T22:50:48.048Z,11.70
2022-10-02T22:53:26.747Z,11.60
2022-10-02T22:55:55.934Z,11.60
2022-10-02T22:58:36.865Z,11.70
2022-10-02T23:01:11.520Z,11.60
2022-10-02T23:04:00.182Z,11.60
2022-10-02T23:06:40.666Z,11.60
2022-10-02T23:09:19.760Z,11.60
2022-10-02T23:11:55.811Z,11.60
2022-10-02T23:14:51.785Z,11.50
2022-10-02T23:17:22.495Z,11.60
2022-10-02T23:20:02.135Z,11.60
2022-10-02T23:22:37.821Z,11.60
2022-10-02T23:25:23.475Z,11.60
2022-10-02T23:28:02.873Z,11.60
2022-10-02T23:30:33.735Z,11.60
2022-10-02T23:33:27.000Z,11.50
2022-10-02T23:36:01.880Z,11.50
2022-10-02T23:38:28.438Z,11.40
2022-10-02T23:41:25.902Z,11.40
2022-10-02T23:44:11.129Z,11.40
2022-10-02T23:46:49.452Z,11.30
2022-10-02T23:49:24.916Z,11.40
2022-10-02T23:52:10.023Z,11.40
2022-10-02T23:55:05.863Z,11.40
2022-10-02T23:57:46.156Z,11.40
